Time;durP1;ratioP1;P1;durP2;ratioP2;P2;SDS_P1;SDS_P2;PMS_P1;PMS_P2;Temp;Humidity;BMP_temperature;BMP_pressure;BME280_temperature;BME280_humidity;BME280_pressure;Samples;Min_cycle;Max_cycle;Signal;HPM_P1;HPM_P2
2022/04/09 00:00:30;;;;;;;;;;;;;;;;;;5135243;27;19922;-76
2022/04/09 00:02:56;;;;;;;;;;;;;;;;;;5135845;27;19915;-76
2022/04/09 00:05:21;;;;;;;;;;;;;;;;;;5135300;27;19923;-75
2022/04/09 00:07:47;;;;;;;;;;;;;;;;;;5135479;27;19915;-77
2022/04/09 00:10:12;;;;;;;;;;;;;;;;;;5135517;27;19934;-76
2022/04/09 00:12:38;;;;;;;;;;;;;;;;;;5135341;27;19920;-75
2022/04/09 00:15:04;;;;;;;;;;;;;;;;;;5135474;27;20006;-76
2022/04/09 00:17:35;;;;;;;;;;;;;;;;;;5135786;27;19916;-77
2022/04/09 00:20:01;;;;;;;;;;;;;;;;;;5135649;27;19915;-75
2022/04/09 00:22:26;;;;;;;;;;;;;;;;;;5135358;27;20006;-75
2022/04/09 00:24:52;;;;;;;;;;;;;;;;;;5135003;27;20009;-76
2022/04/09 00:27:17;;;;;;;;;;;;;;;;;;5135172;27;19915;-75
2022/04/09 00:29:43;;;;;;;;;;;;;;;;;;5135321;27;19984;-75
2022/04/09 00:32:08;;;;;;;;;;;;;;;;;;5135135;27;19929;-75
2022/04/09 00:34:34;;;;;;;;;;;;;;;;;;5135023;27;19916;-76
2022/04/09 00:36:59;;;;;;;;;;;;;;;;;;5135083;27;19915;-76
2022/04/09 00:39:25;;;;;;;;;;;;;;;;;;5134911;27;19972;-75
2022/04/09 00:41:50;;;;;;;;;;;;;;;;;;5135242;27;19957;-76
2022/04/09 00:44:17;;;;;;;;;;;;;;;;;;5134670;27;19916;-75
2022/04/09 00:46:42;;;;;;;;;;;;;;;;;;5134793;27;20393;-75
2022/04/09 00:49:08;;;;;;;;;;;;;;;;;;5135267;27;19916;-77
2022/04/09 00:51:34;;;;;;;;;;;;;;;;;;5134927;27;19977;-77
2022/04/09 00:54:00;;;;;;;;;;;;;;;;;;5134956;27;19915;-76
2022/04/09 00:56:25;;;;;;;;;;;;;;;;;;5135040;27;20010;-76
2022/04/09 00:58:54;;;;;;;;;;;;;;;;;;5134812;27;19922;-77
2022/04/09 01:01:20;;;;;;;;;;;;;;;;;;5134997;27;19919;-77
2022/04/09 01:03:46;;;;;;;;;;;;;;;;;;5135043;27;19919;-76
2022/04/09 01:06:12;;;;;;;;;;;;;;;;;;5134337;27;19916;-77
2022/04/09 01:08:38;;;;;;;;;;;;;;;;;;5134594;27;19919;-77
2022/04/09 01:11:03;;;;;;;;;;;;;;;;;;5136027;27;19931;-77
2022/04/09 01:13:29;;;;;;;;;;;;;;;;;;5139037;27;19916;-76
2022/04/09 01:15:54;;;;;;;;;;;;;;;;;;5139083;27;19980;-78
2022/04/09 01:18:20;;;;;;;;;;;;;;;;;;5138905;27;19966;-77
2022/04/09 01:20:45;;;;;;;;;;;;;;;;;;5139024;27;19962;-77
2022/04/09 01:23:11;;;;;;;;;;;;;;;;;;5138841;27;20367;-77
2022/04/09 01:25:37;;;;;;;;;;;;;;;;;;5138333;27;19922;-75
2022/04/09 01:28:03;;;;;;;;;;;;;;;;;;5138692;27;19915;-74
2022/04/09 01:30:29;;;;;;;;;;;;;;;;;;5138688;27;20286;-75
2022/04/09 01:32:54;;;;;;;;;;;;;;;;;;5137300;27;20271;-75
2022/04/09 01:35:19;;;;;;;;;;;;;;;;;;5138610;27;19919;-78
2022/04/09 01:37:46;;;;;;;;;;;;;;;;;;5138418;27;19923;-77
2022/04/09 01:40:11;;;;;;;;;;;;;;;;;;5138382;27;20002;-76
2022/04/09 01:42:37;;;;;;;;;;;;;;;;;;5138348;27;19958;-77
2022/04/09 01:45:03;;;;;;;;;;;;;;;;;;5138025;27;20010;-75
2022/04/09 01:47:29;;;;;;;;;;;;;;;;;;5138349;27;19924;-75
2022/04/09 01:49:54;;;;;;;;;;;;;;;;;;5138355;27;19922;-76
2022/04/09 01:52:19;;;;;;;;;;;;;;;;;;5138132;27;20018;-77
2022/04/09 01:54:45;;;;;;;;;;;;;;;;;;5138268;27;20013;-75
2022/04/09 01:57:10;;;;;;;;;;;;;;;;;;5138116;27;19919;-76
2022/04/09 01:59:36;;;;;;;;;;;;;;;;;;5138139;27;19923;-76
2022/04/09 02:02:02;;;;;;;;;;;;;;;;;;5138202;27;19911;-76
2022/04/09 02:04:27;;;;;;;;;;;;;;;;;;5137993;27;19915;-77
2022/04/09 02:06:54;;;;;;;;;;;;;;;;;;5137594;27;20339;-77
2022/04/09 02:09:19;;;;;;;;;;;;;;;;;;5137857;27;20324;-76
2022/04/09 02:11:45;;;;;;;;;;;;;;;;;;5137772;27;19916;-77
2022/04/09 02:14:11;;;;;;;;;;;;;;;;;;5137891;27;19915;-76
2022/04/09 02:16:37;;;;;;;;;;;;;;;;;;5137737;27;19920;-75
2022/04/09 02:19:03;;;;;;;;;;;;;;;;;;5137918;27;19976;-76
2022/04/09 02:21:28;;;;;;;;;;;;;;;;;;5137640;27;19915;-74
2022/04/09 02:23:54;;;;;;;;;;;;;;;;;;5137650;27;19916;-76
2022/04/09 02:26:19;;;;;;;;;;;;;;;;;;5137182;27;20316;-75
2022/04/09 02:28:47;;;;;;;;;;;;;;;;;;5137489;27;20330;-75
2022/04/09 02:31:15;;;;;;;;;;;;;;;;;;5137722;27;19938;-75
2022/04/09 02:33:41;;;;;;;;;;;;;;;;;;5137348;27;19915;-74
2022/04/09 02:36:09;;;;;;;;;;;;;;;;;;5128299;27;19923;-76
2022/04/09 02:38:34;;;;;;;;;;;;;;;;;;5114750;27;19927;-76
2022/04/09 02:41:00;;;;;;;;;;;;;;;;;;5115939;28;19916;-76
2022/04/09 02:43:25;;;;;;;;;;;;;;;;;;5116592;28;19922;-75
2022/04/09 02:45:51;;;;;;;;;;;;;;;;;;5116681;28;20431;-75
2022/04/09 02:48:16;;;;;;;;;;;;;;;;;;5116556;28;19928;-75
2022/04/09 02:50:42;;;;;;;;;;;;;;;;;;5116532;28;20359;-75
2022/04/09 02:53:09;;;;;;;;;;;;;;;;;;5115232;28;19963;-75
2022/04/09 02:55:35;;;;;;;;;;;;;;;;;;5122361;27;19916;-76
2022/04/09 02:58:01;;;;;;;;;;;;;;;;;;5136961;27;19941;-75
2022/04/09 03:00:27;;;;;;;;;;;;;;;;;;5136910;27;19920;-75
2022/04/09 03:02:52;;;;;;;;;;;;;;;;;;5137066;27;19916;-76
2022/04/09 03:05:17;;;;;;;;;;;;;;;;;;5136646;27;20386;-76
2022/04/09 03:07:43;;;;;;;;;;;;;;;;;;5136788;27;19962;-75
2022/04/09 03:10:09;;;;;;;;;;;;;;;;;;5136720;27;19941;-75
2022/04/09 03:12:35;;;;;;;;;;;;;;;;;;5136584;27;19915;-75
2022/04/09 03:15:00;;;;;;;;;;;;;;;;;;5136839;27;19923;-75
2022/04/09 03:17:26;;;;;;;;;;;;;;;;;;5136637;27;19956;-74
2022/04/09 03:19:51;;;;;;;;;;;;;;;;;;5136736;27;19960;-76
2022/04/09 03:22:16;;;;;;;;;;;;;;;;;;5136588;27;20052;-77
2022/04/09 03:24:42;;;;;;;;;;;;;;;;;;5136354;27;19961;-79
2022/04/09 03:27:07;;;;;;;;;;;;;;;;;;5136026;27;19960;-74
2022/04/09 03:29:33;;;;;;;;;;;;;;;;;;5136266;27;19912;-79
2022/04/09 03:31:59;;;;;;;;;;;;;;;;;;5135314;27;19916;-76
2022/04/09 03:34:24;;;;;;;;;;;;;;;;;;5135498;27;19919;-76
2022/04/09 03:36:50;;;;;;;;;;;;;;;;;;5136347;27;20378;-79
2022/04/09 03:39:15;;;;;;;;;;;;;;;;;;5136056;27;20378;-75
2022/04/09 03:41:41;;;;;;;;;;;;;;;;;;5136196;27;20287;-78
2022/04/09 03:44:06;;;;;;;;;;;;;;;;;;5136058;27;20010;-78
2022/04/09 03:46:32;;;;;;;;;;;;;;;;;;5135672;27;19915;-78
2022/04/09 03:48:57;;;;;;;;;;;;;;;;;;5135776;27;20386;-78
2022/04/09 03:51:23;;;;;;;;;;;;;;;;;;5135882;27;19916;-78
2022/04/09 03:53:48;;;;;;;;;;;;;;;;;;5136334;27;19922;-79
2022/04/09 03:56:14;;;;;;;;;;;;;;;;;;5135957;27;20044;-78
2022/04/09 03:58:40;;;;;;;;;;;;;;;;;;5134619;27;19943;-77
2022/04/09 04:01:05;;;;;;;;;;;;;;;;;;5135824;27;20391;-76
2022/04/09 04:03:31;;;;;;;;;;;;;;;;;;5135630;27;19967;-76
2022/04/09 04:05:57;;;;;;;;;;;;;;;;;;5135317;27;19919;-77
2022/04/09 04:08:22;;;;;;;;;;;;;;;;;;5135322;27;20378;-78
2022/04/09 04:10:48;;;;;;;;;;;;;;;;;;5135518;27;20367;-77
2022/04/09 04:13:13;;;;;;;;;;;;;;;;;;5135695;27;19915;-77
2022/04/09 04:15:40;;;;;;;;;;;;;;;;;;5136018;27;20363;-77
2022/04/09 04:18:06;;;;;;;;;;;;;;;;;;5135618;27;19915;-77
2022/04/09 04:20:32;;;;;;;;;;;;;;;;;;5135992;27;19922;-76
2022/04/09 04:22:58;;;;;;;;;;;;;;;;;;5135802;27;19923;-76
2022/04/09 04:25:24;;;;;;;;;;;;;;;;;;5134314;27;19923;-77
2022/04/09 04:27:49;;;;;;;;;;;;;;;;;;5135344;27;20287;-75
2022/04/09 04:30:15;;;;;;;;;;;;;;;;;;5136344;27;19968;-76
2022/04/09 04:32:41;;;;;;;;;;;;;;;;;;5136095;27;19926;-75
2022/04/09 04:35:07;;;;;;;;;;;;;;;;;;5135152;27;20010;-76
2022/04/09 04:37:36;;;;;;;;;;;;;;;;;;5136344;27;20002;-76
2022/04/09 04:40:02;;;;;;;;;;;;;;;;;;5135155;27;19964;-76
2022/04/09 04:42:28;;;;;;;;;;;;;;;;;;5135368;27;19919;-78
2022/04/09 04:44:53;;;;;;;;;;;;;;;;;;5134932;27;19919;-78
2022/04/09 04:47:18;;;;;;;;;;;;;;;;;;5134845;27;19916;-79
2022/04/09 04:49:44;;;;;;;;;;;;;;;;;;5136280;27;20006;-75
2022/04/09 04:52:09;;;;;;;;;;;;;;;;;;5136858;27;19976;-77
2022/04/09 04:54:36;;;;;;;;;;;;;;;;;;5136092;27;19915;-77
2022/04/09 04:57:02;;;;;;;;;;;;;;;;;;5136124;27;20302;-74
2022/04/09 04:59:27;;;;;;;;;;;;;;;;;;5135382;27;19920;-74
2022/04/09 05:01:53;;;;;;;;;;;;;;;;;;5134789;27;19912;-75
2022/04/09 05:04:18;;;;;;;;;;;;;;;;;;5136032;27;19915;-74
2022/04/09 05:06:45;;;;;;;;;;;;;;;;;;5135343;28;20375;-75
2022/04/09 05:09:13;;;;;;;;;;;;;;;;;;5130555;27;19919;-74
2022/04/09 05:11:39;;;;;;;;;;;;;;;;;;5123374;28;19967;-83
2022/04/09 05:14:04;;;;;;;;;;;;;;;;;;5114934;28;19920;-85
2022/04/09 05:16:30;;;;;;;;;;;;;;;;;;5132718;28;20366;-75
2022/04/09 05:18:56;;;;;;;;;;;;;;;;;;5133672;27;19942;-80
2022/04/09 05:21:22;;;;;;;;;;;;;;;;;;5134000;27;20402;-77
2022/04/09 05:23:47;;;;;;;;;;;;;;;;;;5133986;28;19915;-75
2022/04/09 05:26:13;;;;;;;;;;;;;;;;;;5133262;28;19923;-75
2022/04/09 05:28:38;;;;;;;;;;;;;;;;;;5133171;28;19923;-75
2022/04/09 05:31:04;;;;;;;;;;;;;;;;;;5133887;27;19916;-76
2022/04/09 05:33:30;;;;;;;;;;;;;;;;;;5133931;27;19919;-77
2022/04/09 05:35:56;;;;;;;;;;;;;;;;;;5127126;27;20275;-78
2022/04/09 05:38:22;;;;;;;;;;;;;;;;;;5125338;27;20418;-75
2022/04/09 05:40:48;;;;;;;;;;;;;;;;;;5128869;28;19962;-76
2022/04/09 05:43:13;;;;;;;;;;;;;;;;;;5134139;28;19938;-74
2022/04/09 05:45:39;;;;;;;;;;;;;;;;;;5134591;27;19915;-80
2022/04/09 05:48:04;;;;;;;;;;;;;;;;;;5134324;27;19926;-77
2022/04/09 05:50:30;;;;;;;;;;;;;;;;;;5134108;27;19970;-77
2022/04/09 05:52:55;;;;;;;;;;;;;;;;;;5134500;27;19919;-78
2022/04/09 05:55:21;;;;;;;;;;;;;;;;;;5134448;27;19922;-76
2022/04/09 05:57:46;;;;;;;;;;;;;;;;;;5136852;27;19969;-75
2022/04/09 06:00:13;;;;;;;;;;;;;;;;;;5132152;27;19923;-75
2022/04/09 06:02:39;;;;;;;;;;;;;;;;;;5137935;27;19931;-76
2022/04/09 06:05:06;;;;;;;;;;;;;;;;;;5138024;27;20367;-76
2022/04/09 06:07:31;;;;;;;;;;;;;;;;;;5137590;27;19920;-75
2022/04/09 06:09:57;;;;;;;;;;;;;;;;;;5137745;27;20002;-75
2022/04/09 06:12:23;;;;;;;;;;;;;;;;;;5136911;27;19919;-79
2022/04/09 06:14:48;;;;;;;;;;;;;;;;;;5137061;27;19932;-75
2022/04/09 06:17:14;;;;;;;;;;;;;;;;;;5137922;27;19916;-75
2022/04/09 06:19:39;;;;;;;;;;;;;;;;;;5137727;27;19915;-76
2022/04/09 06:22:05;;;;;;;;;;;;;;;;;;5139801;27;20014;-78
2022/04/09 06:24:30;;;;;;;;;;;;;;;;;;5139410;27;20439;-79
2022/04/09 06:26:56;;;;;;;;;;;;;;;;;;5159205;27;19993;-75
2022/04/09 06:29:21;;;;;;;;;;;;;;;;;;5161031;27;19927;-79
2022/04/09 06:31:47;;;;;;;;;;;;;;;;;;5143192;27;20359;-80
2022/04/09 06:34:16;;;;;;;;;;;;;;;;;;5138097;27;19915;-77
2022/04/09 06:36:41;;;;;;;;;;;;;;;;;;5127305;27;19927;-79
2022/04/09 06:39:06;;;;;;;;;;;;;;;;;;5137239;27;19923;-77
2022/04/09 06:41:33;;;;;;;;;;;;;;;;;;5122576;27;19923;-76
2022/04/09 06:43:59;;;;;;;;;;;;;;;;;;5124691;27;20298;-78
2022/04/09 06:46:24;;;;;;;;;;;;;;;;;;5137129;27;19937;-76
2022/04/09 06:48:50;;;;;;;;;;;;;;;;;;5135474;27;19938;-76
2022/04/09 06:51:16;;;;;;;;;;;;;;;;;;5128394;27;19916;-76
2022/04/09 06:53:41;;;;;;;;;;;;;;;;;;5116550;28;19930;-75
2022/04/09 06:56:07;;;;;;;;;;;;;;;;;;5116880;28;19950;-78
2022/04/09 06:58:33;;;;;;;;;;;;;;;;;;5116363;28;20413;-77
2022/04/09 07:00:59;;;;;;;;;;;;;;;;;;5116842;28;20418;-82
2022/04/09 07:03:24;;;;;;;;;;;;;;;;;;5127391;27;19919;-77
2022/04/09 07:05:50;;;;;;;;;;;;;;;;;;5130940;27;19920;-78
2022/04/09 07:08:15;;;;;;;;;;;;;;;;;;5127904;27;19919;-79
2022/04/09 07:10:41;;;;;;;;;;;;;;;;;;5130004;27;20397;-78
2022/04/09 07:13:06;;;;;;;;;;;;;;;;;;5134542;27;20409;-77
2022/04/09 07:15:32;;;;;;;;;;;;;;;;;;5135820;27;19968;-75
2022/04/09 07:17:57;;;;;;;;;;;;;;;;;;5134525;27;20379;-77
2022/04/09 07:20:23;;;;;;;;;;;;;;;;;;5135168;27;19927;-79
2022/04/09 07:22:48;;;;;;;;;;;;;;;;;;5124489;27;19937;-79
2022/04/09 07:25:16;;;;;;;;;;;;;;;;;;5116265;28;20373;-80
2022/04/09 07:27:45;;;;;;;;;;;;;;;;;;5118494;27;19949;-79
2022/04/09 07:30:12;;;;;;;;;;;;;;;;;;5124701;27;19968;-79
2022/04/09 07:32:38;;;;;;;;;;;;;;;;;;5115736;28;19916;-81
2022/04/09 07:35:04;;;;;;;;;;;;;;;;;;5134853;27;20052;-79
2022/04/09 07:37:30;;;;;;;;;;;;;;;;;;5136173;27;20402;-79
2022/04/09 07:39:55;;;;;;;;;;;;;;;;;;5136035;27;20295;-77
2022/04/09 07:42:21;;;;;;;;;;;;;;;;;;5136149;27;19922;-80
2022/04/09 07:44:47;;;;;;;;;;;;;;;;;;5136204;27;20399;-81
2022/04/09 07:47:12;;;;;;;;;;;;;;;;;;5136096;27;19954;-78
2022/04/09 07:49:38;;;;;;;;;;;;;;;;;;5135607;27;19955;-80
2022/04/09 07:52:03;;;;;;;;;;;;;;;;;;5135969;27;19955;-79
2022/04/09 07:54:30;;;;;;;;;;;;;;;;;;5135918;27;19916;-78
2022/04/09 07:56:58;;;;;;;;;;;;;;;;;;5135865;27;19918;-77
2022/04/09 07:59:24;;;;;;;;;;;;;;;;;;5135929;27;19922;-78
2022/04/09 08:01:49;;;;;;;;;;;;;;;;;;5134548;27;19994;-78
2022/04/09 08:04:15;;;;;;;;;;;;;;;;;;5135971;27;19922;-82
2022/04/09 08:06:40;;;;;;;;;;;;;;;;;;5135620;27;19926;-78
2022/04/09 08:09:06;;;;;;;;;;;;;;;;;;5135269;27;19912;-77
2022/04/09 08:11:31;;;;;;;;;;;;;;;;;;5135558;27;20009;-79
2022/04/09 08:13:57;;;;;;;;;;;;;;;;;;5134260;27;20366;-80
2022/04/09 08:16:23;;;;;;;;;;;;;;;;;;5134333;27;19968;-79
2022/04/09 08:18:49;;;;;;;;;;;;;;;;;;5135535;27;20010;-78
2022/04/09 08:21:16;;;;;;;;;;;;;;;;;;5135343;27;20452;-79
2022/04/09 08:23:42;;;;;;;;;;;;;;;;;;5135924;27;20268;-79
2022/04/09 08:26:07;;;;;;;;;;;;;;;;;;5135577;27;19929;-80
2022/04/09 08:28:36;;;;;;;;;;;;;;;;;;5135383;27;20006;-80
2022/04/09 08:31:01;;;;;;;;;;;;;;;;;;5134649;27;19915;-79
2022/04/09 08:33:27;;;;;;;;;;;;;;;;;;5135116;27;19964;-80
2022/04/09 08:35:53;;;;;;;;;;;;;;;;;;5135515;27;19919;-78
2022/04/09 08:38:18;;;;;;;;;;;;;;;;;;5135121;27;20359;-79
2022/04/09 08:40:45;;;;;;;;;;;;;;;;;;5133885;27;19968;-80
2022/04/09 08:43:10;;;;;;;;;;;;;;;;;;5135101;27;20283;-78
2022/04/09 08:45:37;;;;;;;;;;;;;;;;;;5135174;27;19927;-75
2022/04/09 08:48:05;;;;;;;;;;;;;;;;;;5135200;27;20006;-75
2022/04/09 08:50:31;;;;;;;;;;;;;;;;;;5133854;27;20044;-79
2022/04/09 08:52:56;;;;;;;;;;;;;;;;;;5137971;27;19915;-78
2022/04/09 08:55:22;;;;;;;;;;;;;;;;;;5136369;27;19923;-80
2022/04/09 08:57:48;;;;;;;;;;;;;;;;;;5133959;27;19915;-76
2022/04/09 09:00:14;;;;;;;;;;;;;;;;;;5134778;27;20385;-79
2022/04/09 09:02:50;;;;;;;;;;;;;;;;;;5134655;27;19915;-76
2022/04/09 09:05:31;;;;;;;;;;;;;;;;;;5134819;27;19912;-75
2022/04/09 09:07:57;;;;;;;;;;;;;;;;;;5134840;27;19919;-76
2022/04/09 09:10:22;;;;;;;;;;;;;;;;;;5134388;28;19922;-78
2022/04/09 09:13:08;;;;;;;;;;;;;;;;;;5133867;27;19972;-82
2022/04/09 09:15:53;;;;;;;;;;;;;;;;;;5133235;28;19951;-76
2022/04/09 09:18:25;;;;;;;;;;;;;;;;;;5134842;27;20340;-75
2022/04/09 09:20:52;;;;;;;;;;;;;;;;;;5133345;28;19955;-76
2022/04/09 09:23:24;;;;;;;;;;;;;;;;;;5119414;27;19931;-77
2022/04/09 09:25:51;;;;;;;;;;;;;;;;;;5140850;27;20002;-79
2022/04/09 09:28:25;;;;;;;;;;;;;;;;;;5116409;27;20427;-83
2022/04/09 09:30:51;;;;;;;;;;;;;;;;;;5113892;28;19916;-82
2022/04/09 09:33:16;;;;;;;;;;;;;;;;;;5118421;28;19942;-77
2022/04/09 09:35:49;;;;;;;;;;;;;;;;;;5118384;28;19951;-85
2022/04/09 09:38:17;;;;;;;;;;;;;;;;;;5117857;28;19916;-77
2022/04/09 09:40:42;;;;;;;;;;;;;;;;;;5118104;28;19996;-80
2022/04/09 09:43:14;;;;;;;;;;;;;;;;;;5117943;28;20419;-76
2022/04/09 09:45:40;;;;;;;;;;;;;;;;;;5118024;28;19916;-80
2022/04/09 09:48:17;;;;;;;;;;;;;;;;;;5117910;28;19985;-83
2022/04/09 09:50:43;;;;;;;;;;;;;;;;;;5117446;28;19927;-80
2022/04/09 09:53:09;;;;;;;;;;;;;;;;;;5117687;28;20294;-83
2022/04/09 09:55:41;;;;;;;;;;;;;;;;;;5117916;28;19923;-85
2022/04/09 09:58:07;;;;;;;;;;;;;;;;;;5121631;27;19920;-81
2022/04/09 10:00:33;;;;;;;;;;;;;;;;;;5126444;27;20323;-79
2022/04/09 10:02:58;;;;;;;;;;;;;;;;;;5135315;27;20018;-78
2022/04/09 10:05:24;;;;;;;;;;;;;;;;;;5122839;27;20402;-86
2022/04/09 10:07:50;;;;;;;;;;;;;;;;;;5123197;27;19920;-76
2022/04/09 10:10:15;;;;;;;;;;;;;;;;;;5120728;27;20386;-80
2022/04/09 10:12:41;;;;;;;;;;;;;;;;;;5124689;27;19923;-76
2022/04/09 10:15:08;;;;;;;;;;;;;;;;;;5125313;27;19985;-76
2022/04/09 10:17:34;;;;;;;;;;;;;;;;;;5126225;27;19959;-74
2022/04/09 10:20:01;;;;;;;;;;;;;;;;;;5123465;27;20008;-74
2022/04/09 10:22:34;;;;;;;;;;;;;;;;;;5128582;27;19923;-78
2022/04/09 10:25:01;;;;;;;;;;;;;;;;;;5127325;27;20362;-77
2022/04/09 10:27:37;;;;;;;;;;;;;;;;;;5127560;27;20017;-75
2022/04/09 10:30:02;;;;;;;;;;;;;;;;;;5124101;27;19923;-79
2022/04/09 10:32:46;;;;;;;;;;;;;;;;;;5126728;27;19919;-80
2022/04/09 10:35:30;;;;;;;;;;;;;;;;;;5129565;27;19942;-77
2022/04/09 10:38:16;;;;;;;;;;;;;;;;;;5123742;27;19919;-83
2022/04/09 10:40:55;;;;;;;;;;;;;;;;;;5124141;27;19938;-88
2022/04/09 10:43:26;;;;;;;;;;;;;;;;;;5122584;27;19919;-76
2022/04/09 10:46:08;;;;;;;;;;;;;;;;;;5127087;27;19920;-87
2022/04/09 10:48:34;;;;;;;;;;;;;;;;;;5136062;27;19920;-85
2022/04/09 10:51:04;;;;;;;;;;;;;;;;;;5137437;27;19915;-88
2022/04/09 10:53:38;;;;;;;;;;;;;;;;;;5141321;27;20026;-89
2022/04/09 10:56:32;;;;;;;;;;;;;;;;;;5140317;27;19960;-88
2022/04/09 10:59:13;;;;;;;;;;;;;;;;;;5135705;27;19987;-76
2022/04/09 11:01:51;;;;;;;;;;;;;;;;;;5126916;27;19920;-76
2022/04/09 11:04:25;;;;;;;;;;;;;;;;;;5137799;27;19926;-78
2022/04/09 11:07:10;;;;;;;;;;;;;;;;;;5137266;27;19968;-74
2022/04/09 11:09:44;;;;;;;;;;;;;;;;;;5137530;27;19924;-76
2022/04/09 11:12:13;;;;;;;;;;;;;;;;;;5133857;27;19923;-76
2022/04/09 11:14:42;;;;;;;;;;;;;;;;;;5140537;27;19919;-77
2022/04/09 11:17:23;;;;;;;;;;;;;;;;;;5136201;27;19920;-75
2022/04/09 11:19:48;;;;;;;;;;;;;;;;;;5133305;27;19920;-75
2022/04/09 11:22:14;;;;;;;;;;;;;;;;;;5135915;27;19918;-75
2022/04/09 11:24:40;;;;;;;;;;;;;;;;;;5136834;27;19919;-76
2022/04/09 11:27:05;;;;;;;;;;;;;;;;;;5130410;27;20006;-73
2022/04/09 11:29:35;;;;;;;;;;;;;;;;;;5131303;27;19911;-75
2022/04/09 11:32:00;;;;;;;;;;;;;;;;;;5132878;27;20011;-75
2022/04/09 11:34:26;;;;;;;;;;;;;;;;;;5129274;27;19923;-77
2022/04/09 11:37:08;;;;;;;;;;;;;;;;;;5135761;27;19915;-76
2022/04/09 11:39:37;;;;;;;;;;;;;;;;;;5134828;27;19972;-76
2022/04/09 11:42:03;;;;;;;;;;;;;;;;;;5124944;27;19919;-75
2022/04/09 11:44:28;;;;;;;;;;;;;;;;;;5136089;27;19973;-74
2022/04/09 11:46:54;;;;;;;;;;;;;;;;;;5124887;27;19976;-77
2022/04/09 11:49:19;;;;;;;;;;;;;;;;;;5127660;27;19958;-76
2022/04/09 11:51:54;;;;;;;;;;;;;;;;;;5135738;27;20367;-75
2022/04/09 11:54:20;;;;;;;;;;;;;;;;;;5135826;27;19938;-75
2022/04/09 11:56:45;;;;;;;;;;;;;;;;;;5135891;27;20374;-74
2022/04/09 11:59:12;;;;;;;;;;;;;;;;;;5136109;27;20048;-73
2022/04/09 12:01:37;;;;;;;;;;;;;;;;;;5131389;27;19968;-74
2022/04/09 12:04:03;;;;;;;;;;;;;;;;;;5133297;27;20287;-74
2022/04/09 12:06:28;;;;;;;;;;;;;;;;;;5133994;27;19946;-78
2022/04/09 12:08:54;;;;;;;;;;;;;;;;;;5135754;27;19911;-79
2022/04/09 12:11:20;;;;;;;;;;;;;;;;;;5134347;27;19969;-76
2022/04/09 12:13:46;;;;;;;;;;;;;;;;;;5123696;27;19916;-76
2022/04/09 12:16:19;;;;;;;;;;;;;;;;;;5125011;27;19920;-75
2022/04/09 12:18:45;;;;;;;;;;;;;;;;;;5126884;27;19919;-75
2022/04/09 12:21:21;;;;;;;;;;;;;;;;;;5136654;27;19920;-75
2022/04/09 12:23:57;;;;;;;;;;;;;;;;;;5135857;27;19938;-77
2022/04/09 12:26:24;;;;;;;;;;;;;;;;;;5135517;27;20000;-77
2022/04/09 12:29:04;;;;;;;;;;;;;;;;;;5136751;27;19923;-75
2022/04/09 12:31:29;;;;;;;;;;;;;;;;;;5134654;27;20382;-74
2022/04/09 12:33:59;;;;;;;;;;;;;;;;;;5137892;27;19941;-80
2022/04/09 12:36:24;;;;;;;;;;;;;;;;;;5134253;27;19911;-79
2022/04/09 12:38:50;;;;;;;;;;;;;;;;;;5115514;27;20007;-75
2022/04/09 12:41:15;;;;;;;;;;;;;;;;;;5127943;27;19927;-75
2022/04/09 12:43:42;;;;;;;;;;;;;;;;;;5128655;27;19920;-77
2022/04/09 12:46:11;;;;;;;;;;;;;;;;;;5114531;27;20143;-74
2022/04/09 12:48:44;;;;;;;;;;;;;;;;;;5114401;28;19920;-73
2022/04/09 12:51:11;;;;;;;;;;;;;;;;;;5127865;27;19919;-76
2022/04/09 12:53:37;;;;;;;;;;;;;;;;;;5117363;27;19924;-73
2022/04/09 12:56:10;;;;;;;;;;;;;;;;;;5114301;28;20275;-75
2022/04/09 12:58:36;;;;;;;;;;;;;;;;;;5114611;28;19923;-86
2022/04/09 13:01:02;;;;;;;;;;;;;;;;;;5114430;28;19955;-74
2022/04/09 13:03:27;;;;;;;;;;;;;;;;;;5114250;28;20440;-73
2022/04/09 13:05:53;;;;;;;;;;;;;;;;;;5114507;28;19920;-72
2022/04/09 13:08:18;;;;;;;;;;;;;;;;;;5113991;28;19930;-75
2022/04/09 13:10:44;;;;;;;;;;;;;;;;;;5114409;28;19919;-73
2022/04/09 13:13:09;;;;;;;;;;;;;;;;;;5113697;28;19968;-73
2022/04/09 13:15:34;;;;;;;;;;;;;;;;;;5114064;28;20294;-72
2022/04/09 13:18:00;;;;;;;;;;;;;;;;;;5114230;28;19981;-73
2022/04/09 13:20:25;;;;;;;;;;;;;;;;;;5114120;28;19916;-73
2022/04/09 13:22:51;;;;;;;;;;;;;;;;;;5114095;28;19919;-73
2022/04/09 13:25:18;;;;;;;;;;;;;;;;;;5114060;28;19911;-76
2022/04/09 13:27:47;;;;;;;;;;;;;;;;;;5113014;28;19915;-76
2022/04/09 13:30:16;;;;;;;;;;;;;;;;;;5114320;28;19950;-74
2022/04/09 13:32:41;;;;;;;;;;;;;;;;;;5113373;28;19920;-75
2022/04/09 13:35:07;;;;;;;;;;;;;;;;;;5113912;28;19926;-75
2022/04/09 13:37:33;;;;;;;;;;;;;;;;;;5114049;28;19939;-74
2022/04/09 13:39:59;;;;;;;;;;;;;;;;;;5113869;28;19970;-74
2022/04/09 13:42:24;;;;;;;;;;;;;;;;;;5113970;28;19920;-75
2022/04/09 13:44:50;;;;;;;;;;;;;;;;;;5114067;28;19915;-74
2022/04/09 13:47:15;;;;;;;;;;;;;;;;;;5114146;28;20363;-74
2022/04/09 13:49:41;;;;;;;;;;;;;;;;;;5113945;28;19923;-74
2022/04/09 13:52:06;;;;;;;;;;;;;;;;;;5113436;28;20008;-76
2022/04/09 13:54:32;;;;;;;;;;;;;;;;;;5113459;28;19954;-74
2022/04/09 13:56:58;;;;;;;;;;;;;;;;;;5113865;28;20366;-79
2022/04/09 13:59:23;;;;;;;;;;;;;;;;;;5113880;28;19923;-74
2022/04/09 14:01:49;;;;;;;;;;;;;;;;;;5113788;28;20424;-81
2022/04/09 14:04:14;;;;;;;;;;;;;;;;;;5113895;28;19915;-75
2022/04/09 14:06:40;;;;;;;;;;;;;;;;;;5113667;28;19915;-74
2022/04/09 14:09:06;;;;;;;;;;;;;;;;;;5113795;28;19912;-75
2022/04/09 14:11:31;;;;;;;;;;;;;;;;;;5113650;28;19916;-74
2022/04/09 14:13:57;;;;;;;;;;;;;;;;;;5113467;28;19920;-77
2022/04/09 14:16:23;;;;;;;;;;;;;;;;;;5112224;28;20367;-75
2022/04/09 14:18:48;;;;;;;;;;;;;;;;;;5116359;28;19945;-75
2022/04/09 14:21:14;;;;;;;;;;;;;;;;;;5117294;27;20379;-73
2022/04/09 14:23:39;;;;;;;;;;;;;;;;;;5117397;28;19916;-73
2022/04/09 14:26:04;;;;;;;;;;;;;;;;;;5117347;28;19988;-73
2022/04/09 14:28:30;;;;;;;;;;;;;;;;;;5117049;28;19923;-73
2022/04/09 14:30:55;;;;;;;;;;;;;;;;;;5117143;28;19976;-74
2022/04/09 14:33:21;;;;;;;;;;;;;;;;;;5117354;28;20075;-76
2022/04/09 14:35:48;;;;;;;;;;;;;;;;;;5130361;27;20474;-74
2022/04/09 14:38:13;;;;;;;;;;;;;;;;;;5137435;27;19923;-73
2022/04/09 14:40:38;;;;;;;;;;;;;;;;;;5136335;27;20401;-74
2022/04/09 14:43:04;;;;;;;;;;;;;;;;;;5137664;27;19915;-74
2022/04/09 14:45:29;;;;;;;;;;;;;;;;;;5137868;27;19941;-73
2022/04/09 14:47:55;;;;;;;;;;;;;;;;;;5137558;27;19940;-74
2022/04/09 14:50:21;;;;;;;;;;;;;;;;;;5137691;27;20002;-74
2022/04/09 14:52:46;;;;;;;;;;;;;;;;;;5137615;27;19915;-74
2022/04/09 14:55:12;;;;;;;;;;;;;;;;;;5135991;27;20006;-75
2022/04/09 14:57:38;;;;;;;;;;;;;;;;;;5120074;27;19915;-74
2022/04/09 15:00:04;;;;;;;;;;;;;;;;;;5135067;27;19919;-74
2022/04/09 15:02:30;;;;;;;;;;;;;;;;;;5117747;27;19966;-73
2022/04/09 15:04:56;;;;;;;;;;;;;;;;;;5116526;28;19912;-73
2022/04/09 15:07:24;;;;;;;;;;;;;;;;;;5116402;28;19916;-73
2022/04/09 15:09:49;;;;;;;;;;;;;;;;;;5116647;28;19915;-73
2022/04/09 15:12:15;;;;;;;;;;;;;;;;;;5114968;28;20385;-73
2022/04/09 15:14:40;;;;;;;;;;;;;;;;;;5115734;28;20325;-73
2022/04/09 15:17:06;;;;;;;;;;;;;;;;;;5116086;28;19919;-77
2022/04/09 15:19:32;;;;;;;;;;;;;;;;;;5116431;28;19916;-74
2022/04/09 15:21:59;;;;;;;;;;;;;;;;;;5116430;28;19919;-73
2022/04/09 15:24:25;;;;;;;;;;;;;;;;;;5116005;28;19957;-74
2022/04/09 15:26:50;;;;;;;;;;;;;;;;;;5116073;28;20362;-74
2022/04/09 15:29:17;;;;;;;;;;;;;;;;;;5115166;28;19957;-79
2022/04/09 15:31:43;;;;;;;;;;;;;;;;;;5115916;28;19915;-75
2022/04/09 15:34:08;;;;;;;;;;;;;;;;;;5115570;28;19968;-74
2022/04/09 15:36:33;;;;;;;;;;;;;;;;;;5115615;28;19916;-74
2022/04/09 15:38:59;;;;;;;;;;;;;;;;;;5115590;28;20371;-79
2022/04/09 15:41:24;;;;;;;;;;;;;;;;;;5115844;28;19916;-79
2022/04/09 15:43:50;;;;;;;;;;;;;;;;;;5123946;27;19922;-85
2022/04/09 15:46:15;;;;;;;;;;;;;;;;;;5136197;27;20287;-81
2022/04/09 15:48:41;;;;;;;;;;;;;;;;;;5135948;27;19994;-75
2022/04/09 15:51:06;;;;;;;;;;;;;;;;;;5136082;27;19915;-74
2022/04/09 15:53:32;;;;;;;;;;;;;;;;;;5135655;27;19915;-82
2022/04/09 15:55:58;;;;;;;;;;;;;;;;;;5135934;27;19920;-73
2022/04/09 15:58:23;;;;;;;;;;;;;;;;;;5136293;27;19976;-74
2022/04/09 16:00:49;;;;;;;;;;;;;;;;;;5135772;27;19937;-78
2022/04/09 16:03:15;;;;;;;;;;;;;;;;;;5135687;27;19915;-74
2022/04/09 16:05:40;;;;;;;;;;;;;;;;;;5135823;27;19915;-78
2022/04/09 16:08:06;;;;;;;;;;;;;;;;;;5135804;27;20225;-81
2022/04/09 16:10:31;;;;;;;;;;;;;;;;;;5135613;27;19919;-76
2022/04/09 16:12:58;;;;;;;;;;;;;;;;;;5135778;27;19919;-75
2022/04/09 16:15:23;;;;;;;;;;;;;;;;;;5135371;27;19915;-78
2022/04/09 16:17:49;;;;;;;;;;;;;;;;;;5135472;27;20041;-76
2022/04/09 16:20:15;;;;;;;;;;;;;;;;;;5135650;27;19911;-81
2022/04/09 16:22:40;;;;;;;;;;;;;;;;;;5135711;27;19920;-76
2022/04/09 16:25:06;;;;;;;;;;;;;;;;;;5135539;27;20079;-75
2022/04/09 16:27:32;;;;;;;;;;;;;;;;;;5135511;27;19950;-75
2022/04/09 16:29:58;;;;;;;;;;;;;;;;;;5135451;27;19923;-75
2022/04/09 16:32:23;;;;;;;;;;;;;;;;;;5135202;27;20374;-76
2022/04/09 16:34:49;;;;;;;;;;;;;;;;;;5134989;27;20379;-86
2022/04/09 16:37:14;;;;;;;;;;;;;;;;;;5133891;27;19919;-76
2022/04/09 16:39:40;;;;;;;;;;;;;;;;;;5134977;27;19923;-81
2022/04/09 16:42:06;;;;;;;;;;;;;;;;;;5135165;27;20010;-84